Time;durP1;ratioP1;P1;durP2;ratioP2;P2;SDS_P1;SDS_P2;PMS_P1;PMS_P2;Temp;Humidity;BMP_temperature;BMP_pressure;BME280_temperature;BME280_humidity;BME280_pressure;Samples;Min_cycle;Max_cycle;Signal;HPM_P1;HPM_P2
2023/07/12 00:01:22;;;;;;;;;;;25.70;69.50;;;;;;5130066;27;19915;-75
2023/07/12 00:03:47;;;;;;;;;;;25.70;69.50;;;;;;5126407;27;19963;-74
2023/07/12 00:06:14;;;;;;;;;;;25.60;69.30;;;;;;5109678;28;20033;-75
2023/07/12 00:08:40;;;;;;;;;;;25.60;69.40;;;;;;5109887;28;19912;-75
2023/07/12 00:11:12;;;;;;;;;;;25.60;69.70;;;;;;5102863;27;20491;-74
2023/07/12 00:13:38;;;;;;;;;;;25.60;69.70;;;;;;5110418;27;19923;-74
2023/07/12 00:16:10;;;;;;;;;;;25.50;69.70;;;;;;5109873;27;19912;-74
2023/07/12 00:18:35;;;;;;;;;;;25.50;69.80;;;;;;5109878;28;20380;-75
2023/07/12 00:21:01;;;;;;;;;;;25.40;69.80;;;;;;5120854;27;19915;-75
2023/07/12 00:23:26;;;;;;;;;;;25.40;70.00;;;;;;5109694;28;19920;-74
2023/07/12 00:25:52;;;;;;;;;;;25.40;69.50;;;;;;5089130;28;20638;-75
2023/07/12 00:28:22;;;;;;;;;;;25.30;69.50;;;;;;5087869;28;20453;-75
2023/07/12 00:30:48;;;;;;;;;;;25.30;69.60;;;;;;5125152;27;19972;-74
2023/07/12 00:33:13;;;;;;;;;;;25.30;69.90;;;;;;5130041;27;19946;-74
2023/07/12 00:35:40;;;;;;;;;;;25.30;69.90;;;;;;5109612;27;20391;-74
2023/07/12 00:38:09;;;;;;;;;;;25.20;69.70;;;;;;5108051;28;20011;-74
2023/07/12 00:40:40;;;;;;;;;;;25.10;69.90;;;;;;5109552;28;19912;-74
2023/07/12 00:43:44;;;;;;;;;;;25.10;69.90;;;;;;5109390;28;19918;-74
2023/07/12 00:46:24;;;;;;;;;;;25.10;69.90;;;;;;5063585;28;19999;-74
2023/07/12 00:48:50;;;;;;;;;;;25.10;69.90;;;;;;5045919;28;19920;-74
2023/07/12 00:51:24;;;;;;;;;;;25.00;69.80;;;;;;5083628;28;20387;-74
2023/07/12 00:53:50;;;;;;;;;;;25.00;70.10;;;;;;5106330;28;19973;-74
2023/07/12 00:56:15;;;;;;;;;;;25.00;69.90;;;;;;5088374;28;19912;-74
2023/07/12 00:58:43;;;;;;;;;;;25.00;69.90;;;;;;5088907;28;19966;-74
2023/07/12 01:01:09;;;;;;;;;;;24.90;69.80;;;;;;5094359;27;19920;-74
2023/07/12 01:03:36;;;;;;;;;;;24.90;70.20;;;;;;5126854;27;19915;-74
2023/07/12 01:06:03;;;;;;;;;;;24.90;70.30;;;;;;5108810;28;20127;-74
2023/07/12 01:08:29;;;;;;;;;;;24.90;70.40;;;;;;5108732;28;19930;-74
2023/07/12 01:10:55;;;;;;;;;;;24.80;70.30;;;;;;5102099;28;20343;-74
2023/07/12 01:13:22;;;;;;;;;;;24.80;70.40;;;;;;5108879;28;19907;-74
2023/07/12 01:15:48;;;;;;;;;;;24.80;70.60;;;;;;5108634;28;19908;-74
2023/07/12 01:18:13;;;;;;;;;;;24.80;70.60;;;;;;5110195;28;20269;-74
2023/07/12 01:20:40;;;;;;;;;;;24.70;70.40;;;;;;5114094;28;19916;-74
2023/07/12 01:23:06;;;;;;;;;;;24.70;70.40;;;;;;5103951;28;19947;-74
2023/07/12 01:25:36;;;;;;;;;;;24.70;70.60;;;;;;5088479;28;20604;-74
2023/07/12 01:28:02;;;;;;;;;;;24.60;70.50;;;;;;5088493;28;19932;-74
2023/07/12 01:30:28;;;;;;;;;;;24.60;70.50;;;;;;5088769;28;19912;-76
2023/07/12 01:32:53;;;;;;;;;;;24.60;70.90;;;;;;5088228;28;20614;-76
2023/07/12 01:35:19;;;;;;;;;;;24.50;70.70;;;;;;5123054;28;19915;-76
2023/07/12 01:37:45;;;;;;;;;;;24.60;70.80;;;;;;5129388;27;19912;-76
2023/07/12 01:40:11;;;;;;;;;;;24.50;70.80;;;;;;5127954;27;19912;-76
2023/07/12 01:42:36;;;;;;;;;;;24.50;71.00;;;;;;5108751;28;19911;-76
2023/07/12 01:45:02;;;;;;;;;;;24.50;71.00;;;;;;5108644;28;19919;-76
2023/07/12 01:47:27;;;;;;;;;;;24.50;70.80;;;;;;5108425;28;20014;-76
2023/07/12 01:49:53;;;;;;;;;;;24.40;71.10;;;;;;5114489;28;19919;-75
2023/07/12 01:52:18;;;;;;;;;;;24.40;71.00;;;;;;5108573;28;20502;-76
2023/07/12 01:54:44;;;;;;;;;;;24.40;71.40;;;;;;5098267;28;19961;-75
2023/07/12 01:57:09;;;;;;;;;;;24.30;71.20;;;;;;5087868;28;19938;-76
2023/07/12 01:59:35;;;;;;;;;;;24.30;71.60;;;;;;5091718;28;20460;-76
2023/07/12 02:02:00;;;;;;;;;;;24.30;71.70;;;;;;5092225;28;20373;-76
2023/07/12 02:04:26;;;;;;;;;;;24.30;71.70;;;;;;5101476;28;19916;-76
2023/07/12 02:06:51;;;;;;;;;;;24.20;71.70;;;;;;5113279;27;20598;-75
2023/07/12 02:09:17;;;;;;;;;;;24.20;71.90;;;;;;5112165;28;19920;-76
2023/07/12 02:11:42;;;;;;;;;;;24.10;72.00;;;;;;5111875;28;20455;-75
2023/07/12 02:14:08;;;;;;;;;;;24.20;72.30;;;;;;5111691;28;20406;-74
2023/07/12 02:16:33;;;;;;;;;;;24.10;72.20;;;;;;5111732;28;19916;-74
2023/07/12 02:18:59;;;;;;;;;;;24.10;72.40;;;;;;5112181;28;19965;-75
2023/07/12 02:21:24;;;;;;;;;;;24.10;72.40;;;;;;5123120;27;19912;-75
2023/07/12 02:23:51;;;;;;;;;;;24.10;72.40;;;;;;5109971;27;20551;-75
2023/07/12 02:26:17;;;;;;;;;;;24.00;72.60;;;;;;5089910;28;19995;-75
2023/07/12 02:28:42;;;;;;;;;;;24.00;72.70;;;;;;5091552;28;20053;-75
2023/07/12 02:31:19;;;;;;;;;;;24.00;72.80;;;;;;5091718;28;19908;-75
2023/07/12 02:33:44;;;;;;;;;;;24.00;72.80;;;;;;5094850;28;19919;-75
2023/07/12 02:36:10;;;;;;;;;;;23.90;72.90;;;;;;5110270;28;19993;-76
2023/07/12 02:38:35;;;;;;;;;;;23.90;72.80;;;;;;5111918;28;19960;-75
2023/07/12 02:41:01;;;;;;;;;;;23.90;73.00;;;;;;5115848;27;19927;-75
2023/07/12 02:43:26;;;;;;;;;;;23.90;72.50;;;;;;5131408;27;19919;-75
2023/07/12 02:45:51;;;;;;;;;;;23.90;73.10;;;;;;5131383;27;20033;-75
2023/07/12 02:48:17;;;;;;;;;;;23.90;73.20;;;;;;5131891;27;19915;-75
2023/07/12 02:50:42;;;;;;;;;;;23.80;73.10;;;;;;5129214;27;19911;-75
2023/07/12 02:53:15;;;;;;;;;;;23.80;73.10;;;;;;5111545;28;19955;-74
2023/07/12 02:55:40;;;;;;;;;;;23.80;73.30;;;;;;5105813;27;19919;-75
2023/07/12 02:58:06;;;;;;;;;;;23.70;73.40;;;;;;5121112;27;19911;-75
2023/07/12 03:00:31;;;;;;;;;;;23.70;73.40;;;;;;5132146;27;19946;-75
2023/07/12 03:02:58;;;;;;;;;;;23.70;73.60;;;;;;5111587;27;20008;-75
2023/07/12 03:05:23;;;;;;;;;;;23.60;73.40;;;;;;5110720;28;20312;-75
2023/07/12 03:07:49;;;;;;;;;;;23.60;73.40;;;;;;5109833;28;19919;-74
2023/07/12 03:10:14;;;;;;;;;;;23.60;73.00;;;;;;5109009;28;19912;-74
2023/07/12 03:12:40;;;;;;;;;;;23.60;73.40;;;;;;5107256;27;19914;-74
2023/07/12 03:15:05;;;;;;;;;;;23.50;73.30;;;;;;5110585;28;19912;-75
2023/07/12 03:17:31;;;;;;;;;;;23.50;73.30;;;;;;5110998;27;19908;-75
2023/07/12 03:19:56;;;;;;;;;;;23.40;73.10;;;;;;5116556;27;19916;-75
2023/07/12 03:22:22;;;;;;;;;;;23.40;73.60;;;;;;5110237;27;20612;-74
2023/07/12 03:24:47;;;;;;;;;;;23.40;73.70;;;;;;5097482;27;19920;-74
2023/07/12 03:27:13;;;;;;;;;;;23.40;73.40;;;;;;5114670;27;20040;-75
2023/07/12 03:29:38;;;;;;;;;;;23.30;73.40;;;;;;5110788;27;20020;-75
2023/07/12 03:32:05;;;;;;;;;;;23.30;73.50;;;;;;5093740;28;20369;-75
2023/07/12 03:34:31;;;;;;;;;;;23.30;73.70;;;;;;5097529;28;20395;-75
2023/07/12 03:36:57;;;;;;;;;;;23.20;73.70;;;;;;5108687;28;20014;-75
2023/07/12 03:39:22;;;;;;;;;;;23.20;73.60;;;;;;5110144;28;20049;-75
2023/07/12 03:41:48;;;;;;;;;;;23.20;73.70;;;;;;5110268;28;19912;-75
2023/07/12 03:44:13;;;;;;;;;;;23.20;73.90;;;;;;5105166;27;19927;-75
2023/07/12 03:46:39;;;;;;;;;;;23.10;73.80;;;;;;5108445;28;19912;-75
2023/07/12 03:49:05;;;;;;;;;;;23.10;73.90;;;;;;5109903;28;19912;-75
2023/07/12 03:51:30;;;;;;;;;;;23.10;74.10;;;;;;5110081;28;19920;-75
2023/07/12 03:53:56;;;;;;;;;;;23.10;73.90;;;;;;5106219;28;19912;-75
2023/07/12 03:56:21;;;;;;;;;;;23.10;73.80;;;;;;5089486;28;19921;-75
2023/07/12 03:58:48;;;;;;;;;;;23.00;74.20;;;;;;5088074;28;19912;-74
2023/07/12 04:01:13;;;;;;;;;;;23.00;74.20;;;;;;5105624;27;19916;-75
2023/07/12 04:03:39;;;;;;;;;;;23.00;74.40;;;;;;5109760;28;19922;-75
2023/07/12 04:06:06;;;;;;;;;;;23.00;74.40;;;;;;5109229;28;19912;-75
2023/07/12 04:08:31;;;;;;;;;;;22.90;74.30;;;;;;5109510;28;19939;-75
2023/07/12 04:10:57;;;;;;;;;;;22.90;74.50;;;;;;5108844;28;19911;-75
2023/07/12 04:13:23;;;;;;;;;;;22.90;74.50;;;;;;5109376;28;20378;-75
2023/07/12 04:15:53;;;;;;;;;;;22.90;74.10;;;;;;5110465;27;19948;-75
2023/07/12 04:18:18;;;;;;;;;;;22.80;74.40;;;;;;5109672;28;19976;-75
2023/07/12 04:20:44;;;;;;;;;;;22.80;74.60;;;;;;5109271;28;19912;-75
2023/07/12 04:23:09;;;;;;;;;;;22.80;74.60;;;;;;5109641;28;19926;-75
2023/07/12 04:25:35;;;;;;;;;;;22.80;74.70;;;;;;5091153;28;19908;-75
2023/07/12 04:28:01;;;;;;;;;;;22.80;74.80;;;;;;5089105;28;19915;-75
2023/07/12 04:30:26;;;;;;;;;;;22.80;74.90;;;;;;5089059;28;19915;-75
2023/07/12 04:32:52;;;;;;;;;;;22.80;74.90;;;;;;5101369;27;19959;-75
2023/07/12 04:35:18;;;;;;;;;;;22.70;75.00;;;;;;5109336;28;20376;-75
2023/07/12 04:37:44;;;;;;;;;;;22.70;74.90;;;;;;5109196;28;19919;-75
2023/07/12 04:40:10;;;;;;;;;;;22.70;74.90;;;;;;5109151;28;19939;-75
2023/07/12 04:42:36;;;;;;;;;;;22.70;75.00;;;;;;5108909;28;19912;-75
2023/07/12 04:45:03;;;;;;;;;;;22.70;75.00;;;;;;5109198;28;20017;-74
2023/07/12 04:47:28;;;;;;;;;;;22.70;75.20;;;;;;5109098;28;19912;-75
2023/07/12 04:49:54;;;;;;;;;;;22.70;75.40;;;;;;5123975;27;19915;-75
2023/07/12 04:52:19;;;;;;;;;;;22.60;75.20;;;;;;5113118;27;20376;-74
2023/07/12 04:54:45;;;;;;;;;;;22.60;75.30;;;;;;5098039;28;19911;-75
2023/07/12 04:57:11;;;;;;;;;;;22.60;75.30;;;;;;5088286;28;19912;-75
2023/07/12 04:59:36;;;;;;;;;;;22.60;75.20;;;;;;5088827;28;19912;-75
2023/07/12 05:02:02;;;;;;;;;;;22.60;75.40;;;;;;5088676;28;19979;-75
2023/07/12 05:04:28;;;;;;;;;;;22.50;75.40;;;;;;5098366;28;19968;-75
2023/07/12 05:06:53;;;;;;;;;;;22.50;75.50;;;;;;5104920;28;19919;-75
2023/07/12 05:09:20;;;;;;;;;;;22.50;75.30;;;;;;5108540;28;19965;-74
2023/07/12 05:11:46;;;;;;;;;;;22.50;75.60;;;;;;5108292;28;19912;-75
2023/07/12 05:14:12;;;;;;;;;;;22.50;75.40;;;;;;5108018;28;19920;-74
2023/07/12 05:16:37;;;;;;;;;;;22.40;75.40;;;;;;5108552;28;20355;-74
2023/07/12 05:19:03;;;;;;;;;;;22.40;75.60;;;;;;5108494;28;19961;-74
2023/07/12 05:21:29;;;;;;;;;;;22.40;75.40;;;;;;5117120;27;19927;-74
2023/07/12 05:23:54;;;;;;;;;;;22.40;75.20;;;;;;5098870;27;19996;-74
2023/07/12 05:26:20;;;;;;;;;;;22.40;75.60;;;;;;5108226;28;19919;-74
2023/07/12 05:28:45;;;;;;;;;;;22.30;75.50;;;;;;5108866;28;19919;-74
2023/07/12 05:31:11;;;;;;;;;;;22.30;75.50;;;;;;5108671;28;19951;-74
2023/07/12 05:33:40;;;;;;;;;;;22.30;75.20;;;;;;5110660;28;19918;-73
2023/07/12 05:36:06;;;;;;;;;;;22.30;75.80;;;;;;5111231;28;20292;-74
2023/07/12 05:38:32;;;;;;;;;;;22.30;75.60;;;;;;5123312;27;19915;-74
2023/07/12 05:40:58;;;;;;;;;;;22.30;75.30;;;;;;5131920;27;19912;-73
2023/07/12 05:43:23;;;;;;;;;;;22.30;75.40;;;;;;5133236;27;19960;-74
2023/07/12 05:45:49;;;;;;;;;;;22.30;75.30;;;;;;5132898;27;19919;-74
2023/07/12 05:48:14;;;;;;;;;;;22.30;75.50;;;;;;5133377;27;19915;-74
2023/07/12 05:50:40;;;;;;;;;;;22.30;75.50;;;;;;5130693;27;19913;-74
2023/07/12 05:53:05;;;;;;;;;;;22.30;75.40;;;;;;5112866;28;19915;-74
2023/07/12 05:55:31;;;;;;;;;;;22.20;75.00;;;;;;5128346;27;19919;-73
2023/07/12 05:57:56;;;;;;;;;;;22.20;75.20;;;;;;5133044;27;20396;-73
2023/07/12 06:00:22;;;;;;;;;;;22.20;75.50;;;;;;5127491;27;19923;-74
2023/07/12 06:02:48;;;;;;;;;;;22.20;75.30;;;;;;5112373;28;19918;-73
2023/07/12 06:05:13;;;;;;;;;;;22.20;75.60;;;;;;5112214;28;19916;-74
2023/07/12 06:07:39;;;;;;;;;;;22.20;75.60;;;;;;5110700;28;19912;-74
2023/07/12 06:10:04;;;;;;;;;;;22.20;75.70;;;;;;5112773;27;20017;-74
2023/07/12 06:12:30;;;;;;;;;;;22.20;75.90;;;;;;5105551;28;20373;-74
2023/07/12 06:14:55;;;;;;;;;;;22.20;75.50;;;;;;5111743;28;19912;-74
2023/07/12 06:17:21;;;;;;;;;;;22.20;75.70;;;;;;5111873;28;19911;-74
2023/07/12 06:19:46;;;;;;;;;;;22.10;75.40;;;;;;5111136;28;19915;-73
2023/07/12 06:22:12;;;;;;;;;;;22.10;75.70;;;;;;5102601;27;19919;-73
2023/07/12 06:24:37;;;;;;;;;;;22.10;75.60;;;;;;5110709;28;20018;-73
2023/07/12 06:27:03;;;;;;;;;;;22.20;75.90;;;;;;5108863;27;20470;-74
2023/07/12 06:29:29;;;;;;;;;;;22.10;75.60;;;;;;5090813;28;20651;-74
2023/07/12 06:31:54;;;;;;;;;;;22.10;75.60;;;;;;5090653;28;19912;-74
2023/07/12 06:34:20;;;;;;;;;;;22.10;76.20;;;;;;5099518;28;19916;-74
2023/07/12 06:36:45;;;;;;;;;;;22.10;75.70;;;;;;5110694;28;19951;-73
2023/07/12 06:39:11;;;;;;;;;;;22.10;75.70;;;;;;5110686;28;20266;-74
2023/07/12 06:41:36;;;;;;;;;;;22.10;75.80;;;;;;5110810;28;19919;-74
2023/07/12 06:44:02;;;;;;;;;;;22.00;75.40;;;;;;5111312;27;19924;-74
2023/07/12 06:46:27;;;;;;;;;;;22.00;75.70;;;;;;5110514;28;19927;-73
2023/07/12 06:48:53;;;;;;;;;;;22.10;75.70;;;;;;5110536;28;19912;-74
2023/07/12 06:51:18;;;;;;;;;;;22.10;75.80;;;;;;5120330;27;19967;-73
2023/07/12 06:53:44;;;;;;;;;;;22.10;75.70;;;;;;5107912;28;20002;-74
2023/07/12 06:56:09;;;;;;;;;;;22.10;75.70;;;;;;5106855;28;19916;-74
2023/07/12 06:58:35;;;;;;;;;;;22.10;75.70;;;;;;5109266;27;20566;-74
2023/07/12 07:01:06;;;;;;;;;;;22.10;75.50;;;;;;5110086;28;19964;-74
2023/07/12 07:03:31;;;;;;;;;;;22.10;75.60;;;;;;5110135;28;20353;-74
2023/07/12 07:05:59;;;;;;;;;;;22.10;75.50;;;;;;5109860;28;19915;-73
2023/07/12 07:08:25;;;;;;;;;;;22.10;75.50;;;;;;5110336;28;19916;-73
2023/07/12 07:10:52;;;;;;;;;;;22.10;75.60;;;;;;5102655;28;19933;-73
2023/07/12 07:13:18;;;;;;;;;;;22.10;75.50;;;;;;5108466;28;19985;-74
2023/07/12 07:15:45;;;;;;;;;;;22.20;75.50;;;;;;5110878;27;19970;-74
2023/07/12 07:18:11;;;;;;;;;;;22.10;75.50;;;;;;5110185;28;19911;-74
2023/07/12 07:20:39;;;;;;;;;;;22.10;75.30;;;;;;5120891;27;20311;-74
2023/07/12 07:23:04;;;;;;;;;;;22.20;75.60;;;;;;5109930;28;20014;-74
2023/07/12 07:25:30;;;;;;;;;;;22.20;75.50;;;;;;5108632;27;20002;-73
2023/07/12 07:27:55;;;;;;;;;;;22.20;75.20;;;;;;5130483;27;19907;-74
2023/07/12 07:30:21;;;;;;;;;;;22.20;75.20;;;;;;5130522;27;19908;-73
2023/07/12 07:32:46;;;;;;;;;;;22.20;75.20;;;;;;5128685;27;19915;-74
2023/07/12 07:35:13;;;;;;;;;;;22.30;75.20;;;;;;5113667;27;20284;-74
2023/07/12 07:37:38;;;;;;;;;;;22.20;75.30;;;;;;5109579;28;19951;-73
2023/07/12 07:40:04;;;;;;;;;;;22.30;75.30;;;;;;5109570;28;20367;-74
2023/07/12 07:42:30;;;;;;;;;;;22.30;74.90;;;;;;5109781;27;19911;-74
2023/07/12 07:44:55;;;;;;;;;;;22.30;75.10;;;;;;5109588;28;20270;-73
2023/07/12 07:47:21;;;;;;;;;;;22.40;74.80;;;;;;5110193;27;19907;-74
2023/07/12 07:49:46;;;;;;;;;;;22.30;74.90;;;;;;5109326;28;19916;-73
2023/07/12 07:52:12;;;;;;;;;;;22.30;75.10;;;;;;5107679;28;19916;-73
2023/07/12 07:54:38;;;;;;;;;;;22.40;75.10;;;;;;5099928;28;20573;-73
2023/07/12 07:57:04;;;;;;;;;;;22.40;74.90;;;;;;5092870;28;19912;-74
2023/07/12 07:59:30;;;;;;;;;;;22.40;74.60;;;;;;5109327;28;19964;-73
2023/07/12 08:01:55;;;;;;;;;;;22.40;74.80;;;;;;5109435;28;19915;-73
2023/07/12 08:04:20;;;;;;;;;;;22.40;74.90;;;;;;5110112;27;19922;-73
2023/07/12 08:06:46;;;;;;;;;;;22.40;74.70;;;;;;5108756;28;20305;-74
2023/07/12 08:09:12;;;;;;;;;;;22.40;74.40;;;;;;5109131;27;19916;-73
2023/07/12 08:11:37;;;;;;;;;;;22.40;74.50;;;;;;5107054;28;19919;-73
2023/07/12 08:14:03;;;;;;;;;;;22.40;74.50;;;;;;5108744;28;20280;-73
2023/07/12 08:16:30;;;;;;;;;;;22.40;74.70;;;;;;5107341;28;19912;-74
2023/07/12 08:18:57;;;;;;;;;;;22.30;74.40;;;;;;5108871;28;20407;-73
2023/07/12 08:21:22;;;;;;;;;;;22.30;74.40;;;;;;5120224;27;19912;-74
2023/07/12 08:23:48;;;;;;;;;;;22.30;74.50;;;;;;5106023;28;19972;-73
2023/07/12 08:26:14;;;;;;;;;;;22.30;74.60;;;;;;5088174;28;19964;-73
2023/07/12 08:28:39;;;;;;;;;;;22.30;74.50;;;;;;5088477;28;19913;-74
2023/07/12 08:31:05;;;;;;;;;;;22.30;74.50;;;;;;5088377;28;19916;-74
2023/07/12 08:33:31;;;;;;;;;;;22.30;74.10;;;;;;5098753;27;20375;-74
2023/07/12 08:35:56;;;;;;;;;;;22.40;74.10;;;;;;5108188;28;19923;-74
2023/07/12 08:38:22;;;;;;;;;;;22.40;73.80;;;;;;5108380;28;19915;-74
2023/07/12 08:40:49;;;;;;;;;;;22.40;73.30;;;;;;5108686;28;20419;-73
2023/07/12 08:43:16;;;;;;;;;;;22.50;73.90;;;;;;5088092;28;19918;-74
2023/07/12 08:45:43;;;;;;;;;;;22.50;73.50;;;;;;5087989;28;19918;-74
2023/07/12 08:48:14;;;;;;;;;;;22.50;73.40;;;;;;5088162;28;19913;-73
2023/07/12 08:50:43;;;;;;;;;;;22.50;73.30;;;;;;5106054;27;19916;-73
2023/07/12 08:53:10;;;;;;;;;;;22.50;73.20;;;;;;5108584;28;19907;-73
2023/07/12 08:55:37;;;;;;;;;;;22.50;73.50;;;;;;5090266;28;19998;-74
2023/07/12 08:58:09;;;;;;;;;;;22.50;73.00;;;;;;5088442;28;19916;-75
2023/07/12 09:00:36;;;;;;;;;;;22.60;72.90;;;;;;5088196;28;19930;-75
2023/07/12 09:03:02;;;;;;;;;;;22.60;72.90;;;;;;5087850;28;19908;-74
2023/07/12 09:05:28;;;;;;;;;;;22.70;73.10;;;;;;5107059;28;19972;-74
2023/07/12 09:07:59;;;;;;;;;;;22.60;72.80;;;;;;5108015;28;19921;-74
2023/07/12 09:10:33;;;;;;;;;;;22.70;72.20;;;;;;5108070;28;20582;-74
2023/07/12 09:12:59;;;;;;;;;;;22.70;72.60;;;;;;5107597;28;19912;-74
2023/07/12 09:15:30;;;;;;;;;;;22.80;72.40;;;;;;5106716;28;20372;-74
2023/07/12 09:17:56;;;;;;;;;;;22.80;72.00;;;;;;5126613;27;20417;-75
2023/07/12 09:20:23;;;;;;;;;;;22.80;72.20;;;;;;5115886;27;19915;-74
2023/07/12 09:22:49;;;;;;;;;;;22.80;72.10;;;;;;5107556;28;19924;-74
2023/07/12 09:25:22;;;;;;;;;;;22.80;72.20;;;;;;5117099;27;20388;-74
2023/07/12 09:27:48;;;;;;;;;;;22.80;72.50;;;;;;5124618;28;19911;-75
2023/07/12 09:30:18;;;;;;;;;;;22.80;72.10;;;;;;5128639;27;20484;-74
2023/07/12 09:32:45;;;;;;;;;;;22.80;72.10;;;;;;5128358;27;19971;-75
2023/07/12 09:35:23;;;;;;;;;;;22.80;71.80;;;;;;5112201;27;20338;-74
2023/07/12 09:37:55;;;;;;;;;;;22.80;72.00;;;;;;5108676;28;20045;-74
2023/07/12 09:40:21;;;;;;;;;;;22.90;71.60;;;;;;5106782;28;19912;-74
2023/07/12 09:42:47;;;;;;;;;;;22.90;71.80;;;;;;5108424;28;20441;-74
2023/07/12 09:45:13;;;;;;;;;;;23.00;71.60;;;;;;5108187;28;19923;-74
2023/07/12 09:48:02;;;;;;;;;;;23.00;71.50;;;;;;5108368;28;19908;-75
2023/07/12 09:50:35;;;;;;;;;;;23.00;71.30;;;;;;5077225;28;19947;-74
2023/07/12 09:53:03;;;;;;;;;;;23.10;71.20;;;;;;5108467;28;19912;-74
2023/07/12 09:55:29;;;;;;;;;;;23.10;71.40;;;;;;5122762;28;19915;-74
2023/07/12 09:58:06;;;;;;;;;;;23.10;71.30;;;;;;5128706;27;19914;-75
2023/07/12 10:00:46;;;;;;;;;;;23.10;70.90;;;;;;5128851;27;20626;-74
2023/07/12 10:03:13;;;;;;;;;;;23.30;71.20;;;;;;5127318;27;19918;-75
2023/07/12 10:05:41;;;;;;;;;;;23.30;70.60;;;;;;5108405;27;19915;-75
2023/07/12 10:08:14;;;;;;;;;;;23.20;70.90;;;;;;5107796;28;19916;-74
2023/07/12 10:10:58;;;;;;;;;;;23.20;71.00;;;;;;5110879;28;19915;-74
2023/07/12 10:13:27;;;;;;;;;;;23.30;71.10;;;;;;5107610;28;20264;-74
2023/07/12 10:15:52;;;;;;;;;;;23.30;70.80;;;;;;5103931;28;19916;-75
2023/07/12 10:18:25;;;;;;;;;;;23.40;70.70;;;;;;5108180;28;20285;-75
2023/07/12 10:20:51;;;;;;;;;;;23.40;70.40;;;;;;5122323;27;19914;-75
2023/07/12 10:23:18;;;;;;;;;;;23.40;70.70;;;;;;5111887;28;19920;-74
2023/07/12 10:25:48;;;;;;;;;;;23.40;70.70;;;;;;5091397;28;19916;-75
2023/07/12 10:28:13;;;;;;;;;;;23.40;70.70;;;;;;5131877;27;19915;-74
2023/07/12 10:30:40;;;;;;;;;;;23.40;70.80;;;;;;5132332;27;19963;-75
2023/07/12 10:33:15;;;;;;;;;;;23.40;70.80;;;;;;5132382;27;19918;-74
2023/07/12 10:35:49;;;;;;;;;;;23.40;70.90;;;;;;5111505;27;20418;-75
2023/07/12 10:38:16;;;;;;;;;;;23.30;70.80;;;;;;5111567;28;19946;-74
2023/07/12 10:40:49;;;;;;;;;;;23.40;70.90;;;;;;5111607;28;19918;-75
2023/07/12 10:43:19;;;;;;;;;;;23.40;70.80;;;;;;5112575;27;20026;-74
2023/07/12 10:45:46;;;;;;;;;;;23.40;70.60;;;;;;5111248;28;19967;-75
2023/07/12 10:48:19;;;;;;;;;;;23.40;70.90;;;;;;5111323;28;20493;-74
2023/07/12 10:50:48;;;;;;;;;;;23.40;70.70;;;;;;5122131;27;20433;-75
2023/07/12 10:53:26;;;;;;;;;;;23.30;70.70;;;;;;5111494;28;19912;-74
2023/07/12 10:56:07;;;;;;;;;;;23.30;70.70;;;;;;5089265;28;20011;-75
2023/07/12 10:58:41;;;;;;;;;;;23.30;70.90;;;;;;5096450;27;19920;-75
2023/07/12 11:01:27;;;;;;;;;;;23.40;71.10;;;;;;5110828;27;19915;-74
2023/07/12 11:04:04;;;;;;;;;;;23.30;70.50;;;;;;5109469;28;19920;-74
2023/07/12 11:06:32;;;;;;;;;;;23.30;70.30;;;;;;5108886;28;19912;-75
2023/07/12 11:08:58;;;;;;;;;;;23.40;70.80;;;;;;5110205;28;20003;-75
2023/07/12 11:11:28;;;;;;;;;;;23.50;70.30;;;;;;5102957;28;20092;-75
2023/07/12 11:13:59;;;;;;;;;;;23.60;70.20;;;;;;5109572;28;19915;-74
2023/07/12 11:16:26;;;;;;;;;;;23.70;70.00;;;;;;5110822;27;19916;-75
2023/07/12 11:18:56;;;;;;;;;;;23.80;69.80;;;;;;5109683;28;19995;-74
2023/07/12 11:21:48;;;;;;;;;;;23.90;69.70;;;;;;5109724;28;19907;-74
2023/07/12 11:24:39;;;;;;;;;;;24.00;69.40;;;;;;5102999;27;19920;-75
2023/07/12 11:27:08;;;;;;;;;;;24.10;69.40;;;;;;5080428;28;20319;-75
2023/07/12 11:29:35;;;;;;;;;;;24.20;69.40;;;;;;5089778;28;19973;-75
2023/07/12 11:32:19;;;;;;;;;;;24.30;69.00;;;;;;5097979;27;20273;-75
2023/07/12 11:34:45;;;;;;;;;;;24.30;69.00;;;;;;5110089;28;19958;-75
2023/07/12 11:37:22;;;;;;;;;;;24.40;69.10;;;;;;5109438;28;20444;-75
2023/07/12 11:39:47;;;;;;;;;;;24.50;68.90;;;;;;5108814;28;19908;-75
2023/07/12 11:42:24;;;;;;;;;;;24.50;68.20;;;;;;5109974;28;19994;-76
2023/07/12 11:45:08;;;;;;;;;;;24.60;68.00;;;;;;5109718;28;19942;-75
2023/07/12 11:47:34;;;;;;;;;;;24.70;67.80;;;;;;5111922;27;19912;-74
2023/07/12 11:50:00;;;;;;;;;;;24.90;67.70;;;;;;5129999;27;19915;-75
2023/07/12 11:52:26;;;;;;;;;;;25.00;67.40;;;;;;5113166;27;19947;-75
2023/07/12 11:54:53;;;;;;;;;;;25.00;67.40;;;;;;5098290;28;20551;-76
2023/07/12 11:57:19;;;;;;;;;;;25.10;67.00;;;;;;5087544;28;19947;-75
2023/07/12 11:59:45;;;;;;;;;;;25.10;67.50;;;;;;5089513;28;19916;-75
2023/07/12 12:02:15;;;;;;;;;;;25.20;67.70;;;;;;5088991;28;19994;-75
2023/07/12 12:04:41;;;;;;;;;;;25.20;67.60;;;;;;5104370;27;19932;-75
2023/07/12 12:07:27;;;;;;;;;;;25.30;66.70;;;;;;5109060;28;20008;-75
2023/07/12 12:09:53;;;;;;;;;;;25.30;66.20;;;;;;5108819;28;19916;-75
2023/07/12 12:12:20;;;;;;;;;;;25.30;66.40;;;;;;5102141;28;19916;-75
2023/07/12 12:14:47;;;;;;;;;;;25.40;67.00;;;;;;5109323;28;19947;-75
2023/07/12 12:17:17;;;;;;;;;;;25.50;67.00;;;;;;5109009;27;19911;-76
2023/07/12 12:19:46;;;;;;;;;;;25.50;66.50;;;;;;5110130;27;19911;-76
2023/07/12 12:22:17;;;;;;;;;;;25.60;66.90;;;;;;5098803;27;19916;-75
2023/07/12 12:24:45;;;;;;;;;;;25.70;67.40;;;;;;5087642;28;19916;-75
2023/07/12 12:27:18;;;;;;;;;;;25.70;66.60;;;;;;5088328;28;19919;-76
2023/07/12 12:29:44;;;;;;;;;;;25.70;66.40;;;;;;5089043;28;20454;-75
2023/07/12 12:32:15;;;;;;;;;;;25.80;66.40;;;;;;5088933;28;20001;-75
2023/07/12 12:34:43;;;;;;;;;;;25.80;66.20;;;;;;5100257;28;19912;-75
2023/07/12 12:37:10;;;;;;;;;;;25.70;66.40;;;;;;5119167;27;20055;-76
2023/07/12 12:39:36;;;;;;;;;;;25.70;66.20;;;;;;5108780;27;19916;-75
2023/07/12 12:42:06;;;;;;;;;;;25.80;66.30;;;;;;5107990;28;19919;-76
2023/07/12 12:44:35;;;;;;;;;;;25.80;65.10;;;;;;5108696;28;19911;-76
2023/07/12 12:47:10;;;;;;;;;;;25.80;64.90;;;;;;5108217;28;20440;-76
2023/07/12 12:49:36;;;;;;;;;;;25.90;65.30;;;;;;5113103;27;20430;-76
2023/07/12 12:52:21;;;;;;;;;;;25.90;65.90;;;;;;5110224;27;19912;-75
2023/07/12 12:54:46;;;;;;;;;;;26.00;66.00;;;;;;5093397;28;19920;-76
2023/07/12 12:57:12;;;;;;;;;;;26.10;65.70;;;;;;5087163;28;19912;-76
2023/07/12 12:59:37;;;;;;;;;;;26.20;64.90;;;;;;5088855;28;19912;-76
2023/07/12 13:02:11;;;;;;;;;;;26.20;65.80;;;;;;5089035;28;20361;-76
2023/07/12 13:04:36;;;;;;;;;;;26.10;65.80;;;;;;5099924;28;19920;-76
2023/07/12 13:07:04;;;;;;;;;;;26.10;66.00;;;;;;5107507;28;19971;-76
2023/07/12 13:09:31;;;;;;;;;;;26.20;65.60;;;;;;5105025;28;19915;-76
2023/07/12 13:11:56;;;;;;;;;;;26.30;65.80;;;;;;5106757;28;19938;-75
2023/07/12 13:14:22;;;;;;;;;;;26.20;64.60;;;;;;5107566;28;19916;-76
2023/07/12 13:16:47;;;;;;;;;;;26.10;64.30;;;;;;5126464;27;19907;-76
2023/07/12 13:19:13;;;;;;;;;;;26.20;65.00;;;;;;5128292;27;19918;-76
2023/07/12 13:21:38;;;;;;;;;;;26.30;64.20;;;;;;5108944;28;19963;-76
2023/07/12 13:24:05;;;;;;;;;;;26.30;64.40;;;;;;5107115;28;20009;-76
2023/07/12 13:26:30;;;;;;;;;;;26.30;63.70;;;;;;5124269;28;20449;-76
2023/07/12 13:28:56;;;;;;;;;;;26.30;64.80;;;;;;5129670;27;19919;-75
2023/07/12 13:31:21;;;;;;;;;;;26.40;64.60;;;;;;5129955;27;19995;-76
2023/07/12 13:33:47;;;;;;;;;;;26.50;64.90;;;;;;5124125;28;19912;-76
2023/07/12 13:36:24;;;;;;;;;;;26.50;65.40;;;;;;5108252;28;19919;-76
2023/07/12 13:38:49;;;;;;;;;;;26.50;64.20;;;;;;5103456;28;19916;-75
2023/07/12 13:41:15;;;;;;;;;;;26.60;64.80;;;;;;5109527;28;20511;-76
2023/07/12 13:43:40;;;;;;;;;;;26.70;65.20;;;;;;5108782;28;19954;-75
2023/07/12 13:46:11;;;;;;;;;;;26.70;64.60;;;;;;5108366;28;19912;-76
2023/07/12 13:48:36;;;;;;;;;;;26.80;63.90;;;;;;5108472;28;19949;-75
2023/07/12 13:51:02;;;;;;;;;;;26.90;63.20;;;;;;5113754;28;20004;-75
2023/07/12 13:53:27;;;;;;;;;;;26.90;64.10;;;;;;5105711;28;19919;-76
2023/07/12 13:55:53;;;;;;;;;;;27.00;63.20;;;;;;5110453;28;20276;-76
2023/07/12 13:58:18;;;;;;;;;;;27.00;62.80;;;;;;5113835;27;19998;-76
2023/07/12 14:00:44;;;;;;;;;;;27.10;62.50;;;;;;5112326;28;19911;-76
2023/07/12 14:03:10;;;;;;;;;;;27.10;62.70;;;;;;5112548;28;20383;-76
2023/07/12 14:05:35;;;;;;;;;;;27.10;62.60;;;;;;5111964;28;19920;-76
2023/07/12 14:08:01;;;;;;;;;;;27.20;63.30;;;;;;5112595;28;19996;-75
2023/07/12 14:10:26;;;;;;;;;;;27.30;64.40;;;;;;5109524;27;19908;-75
2023/07/12 14:12:52;;;;;;;;;;;27.30;63.10;;;;;;5108114;28;20398;-75
2023/07/12 14:15:20;;;;;;;;;;;27.30;62.90;;;;;;5113251;27;19919;-75
2023/07/12 14:17:46;;;;;;;;;;;27.40;62.40;;;;;;5112160;28;19912;-76